Time;durP1;ratioP1;P1;durP2;ratioP2;P2;SDS_P1;SDS_P2;PMS_P1;PMS_P2;Temp;Humidity;BMP_temperature;BMP_pressure;BME280_temperature;BME280_humidity;BME280_pressure;Samples;Min_cycle;Max_cycle;Signal;HPM_P1;HPM_P2
2021/06/05 00:01:28;;;;;;;13.73;9.90;;;;;;;;;;754205;186;917851;-73
2021/06/05 00:03:54;;;;;;;14.80;10.53;;;;;;;;;;744193;186;917986;-73
2021/06/05 00:06:21;;;;;;;16.90;10.60;;;;;;;;;;742161;187;1021376;-73
2021/06/05 00:08:46;;;;;;;11.80;9.20;;;;;;;;;;754413;187;918767;-72
2021/06/05 00:11:12;;;;;;;15.50;9.40;;;;;;;;;;745319;187;915086;-73
2021/06/05 00:13:38;;;;;;;10.80;9.17;;;;;;;;;;742446;187;918853;-73
2021/06/05 00:16:04;;;;;;;12.90;10.77;;;;;;;;;;750087;187;815611;-74
2021/06/05 00:18:31;;;;;;;15.07;10.23;;;;;;;;;;747065;187;917724;-73
2021/06/05 00:20:56;;;;;;;10.00;7.73;;;;;;;;;;742044;187;816737;-72
2021/06/05 00:23:22;;;;;;;12.80;9.10;;;;;;;;;;734815;187;1329254;-74
2021/06/05 00:25:48;;;;;;;12.70;10.13;;;;;;;;;;748009;187;917650;-73
2021/06/05 00:28:14;;;;;;;13.20;9.67;;;;;;;;;;745487;187;920075;-73
2021/06/05 00:30:39;;;;;;;11.33;9.80;;;;;;;;;;740299;187;939085;-73
2021/06/05 00:33:05;;;;;;;10.20;8.80;;;;;;;;;;743651;187;916986;-73
2021/06/05 00:35:31;;;;;;;12.20;9.30;;;;;;;;;;740012;187;918700;-73
2021/06/05 00:37:57;;;;;;;13.07;9.73;;;;;;;;;;743668;187;918491;-72
2021/06/05 00:40:23;;;;;;;13.87;10.00;;;;;;;;;;743196;184;920625;-73
2021/06/05 00:42:49;;;;;;;11.50;10.00;;;;;;;;;;754369;183;916281;-74
2021/06/05 00:45:15;;;;;;;11.20;9.00;;;;;;;;;;746771;186;914324;-72
2021/06/05 00:47:41;;;;;;;14.30;10.20;;;;;;;;;;743263;186;919039;-74
2021/06/05 00:50:07;;;;;;;13.40;9.97;;;;;;;;;;751525;186;809621;-73
2021/06/05 00:52:33;;;;;;;11.50;9.13;;;;;;;;;;742238;186;997955;-73
2021/06/05 00:54:58;;;;;;;14.85;8.95;;;;;;;;;;747006;186;1034903;-72
2021/06/05 00:57:24;;;;;;;18.07;9.40;;;;;;;;;;752031;186;878923;-73
2021/06/05 00:59:50;;;;;;;10.27;9.17;;;;;;;;;;741415;186;921847;-73
2021/06/05 01:02:16;;;;;;;11.80;9.27;;;;;;;;;;740797;186;1021009;-73
2021/06/05 01:04:42;;;;;;;12.27;9.50;;;;;;;;;;752499;186;906161;-73
2021/06/05 01:07:10;;;;;;;12.27;9.43;;;;;;;;;;739568;186;912943;-73
2021/06/05 01:09:57;;;;;;;14.33;11.27;;;;;;;;;;746290;186;917180;-73
2021/06/05 01:12:15;;;;;;;13.30;10.57;;;;;;;;;;744740;186;915174;-73
2021/06/05 01:14:43;;;;;;;12.30;10.50;;;;;;;;;;739859;186;917615;-74
2021/06/05 01:17:18;;;;;;;15.23;10.27;;;;;;;;;;740472;186;917983;-74
2021/06/05 01:19:50;;;;;;;11.37;9.30;;;;;;;;;;741172;187;820035;-74
2021/06/05 01:22:19;;;;;;;13.13;9.83;;;;;;;;;;738627;187;909454;-72
2021/06/05 01:24:45;;;;;;;11.90;9.80;;;;;;;;;;739759;187;918662;-73
2021/06/05 01:27:11;;;;;;;12.93;10.10;;;;;;;;;;747014;187;1020291;-73
2021/06/05 01:29:37;;;;;;;13.53;10.00;;;;;;;;;;739902;187;1008994;-73
2021/06/05 01:32:04;;;;;;;22.13;9.73;;;;;;;;;;741320;187;920626;-74
2021/06/05 01:34:30;;;;;;;13.27;10.87;;;;;;;;;;744101;187;919505;-75
2021/06/05 01:36:56;;;;;;;11.40;9.87;;;;;;;;;;755596;184;916446;-73
2021/06/05 01:39:23;;;;;;;17.53;10.40;;;;;;;;;;739819;187;883376;-73
2021/06/05 01:41:48;;;;;;;11.30;9.83;;;;;;;;;;741568;187;1018945;-72
2021/06/05 01:44:14;;;;;;;11.17;9.73;;;;;;;;;;753139;187;1019957;-72
2021/06/05 01:46:40;;;;;;;13.97;11.57;;;;;;;;;;745699;187;917946;-73
2021/06/05 01:49:06;;;;;;;15.40;11.77;;;;;;;;;;743459;187;817186;-73
2021/06/05 01:51:32;;;;;;;14.60;11.40;;;;;;;;;;741904;187;912735;-72
2021/06/05 01:53:58;;;;;;;16.00;11.90;;;;;;;;;;750741;186;923646;-73
2021/06/05 01:56:24;;;;;;;16.80;12.20;;;;;;;;;;748710;186;910001;-74
2021/06/05 01:58:49;;;;;;;16.63;11.27;;;;;;;;;;754995;186;803048;-73
2021/06/05 02:01:15;;;;;;;14.10;12.23;;;;;;;;;;743586;186;1021110;-73
2021/06/05 02:03:41;;;;;;;17.95;12.98;;;;;;;;;;743008;186;920360;-73
2021/06/05 02:06:07;;;;;;;17.37;12.80;;;;;;;;;;743549;186;956293;-73
2021/06/05 02:08:33;;;;;;;17.45;12.25;;;;;;;;;;753174;186;913594;-74
2021/06/05 02:10:59;;;;;;;17.83;13.13;;;;;;;;;;744623;186;910133;-74
2021/06/05 02:13:26;;;;;;;18.33;14.00;;;;;;;;;;738952;187;912056;-74
2021/06/05 02:15:52;;;;;;;16.20;13.17;;;;;;;;;;742836;186;775678;-73
2021/06/05 02:18:18;;;;;;;18.50;13.33;;;;;;;;;;740950;186;916043;-74
2021/06/05 02:20:44;;;;;;;18.83;14.20;;;;;;;;;;741778;186;813177;-74
2021/06/05 02:23:11;;;;;;;16.17;12.70;;;;;;;;;;746251;186;1018479;-73
2021/06/05 02:25:37;;;;;;;17.60;13.17;;;;;;;;;;750657;186;913114;-73
2021/06/05 02:28:03;;;;;;;14.80;12.93;;;;;;;;;;742006;186;1009713;-74
2021/06/05 02:30:29;;;;;;;19.80;12.90;;;;;;;;;;747944;187;911050;-74
2021/06/05 02:32:55;;;;;;;20.53;14.53;;;;;;;;;;749357;187;894731;-74
2021/06/05 02:35:22;;;;;;;20.90;14.23;;;;;;;;;;741886;187;919553;-74
2021/06/05 02:37:47;;;;;;;19.07;12.93;;;;;;;;;;740575;187;910514;-74
2021/06/05 02:40:14;;;;;;;19.70;13.70;;;;;;;;;;747069;187;917756;-75
2021/06/05 02:42:40;;;;;;;20.60;13.63;;;;;;;;;;746396;187;816171;-74
2021/06/05 02:45:09;;;;;;;18.97;14.10;;;;;;;;;;741946;187;919331;-75
2021/06/05 02:47:35;;;;;;;16.02;14.25;;;;;;;;;;740445;187;927382;-75
2021/06/05 02:50:01;;;;;;;22.00;15.00;;;;;;;;;;752026;187;875392;-74
2021/06/05 02:52:29;;;;;;;20.60;15.03;;;;;;;;;;739734;187;945724;-75
2021/06/05 02:54:59;;;;;;;20.90;15.77;;;;;;;;;;744460;187;918428;-75
2021/06/05 02:57:25;;;;;;;18.07;14.23;;;;;;;;;;750751;187;816600;-74
2021/06/05 02:59:51;;;;;;;16.70;12.87;;;;;;;;;;743871;187;918347;-74
2021/06/05 03:02:16;;;;;;;23.90;14.70;;;;;;;;;;738723;187;917851;-74
2021/06/05 03:04:43;;;;;;;20.83;16.17;;;;;;;;;;737716;186;919129;-75
2021/06/05 03:07:09;;;;;;;23.30;15.50;;;;;;;;;;750910;186;918287;-74
2021/06/05 03:09:35;;;;;;;20.50;15.00;;;;;;;;;;743020;186;918216;-75
2021/06/05 03:12:01;;;;;;;27.23;13.27;;;;;;;;;;741460;186;917839;-75
2021/06/05 03:14:26;;;;;;;15.07;11.97;;;;;;;;;;743051;186;915923;-74
2021/06/05 03:16:52;;;;;;;24.33;14.70;;;;;;;;;;742462;186;918749;-75
2021/06/05 03:19:18;;;;;;;17.02;13.48;;;;;;;;;;746244;186;917792;-74
2021/06/05 03:21:44;;;;;;;21.00;16.03;;;;;;;;;;742436;187;914686;-75
2021/06/05 03:24:10;;;;;;;18.17;14.43;;;;;;;;;;745027;186;787605;-75
2021/06/05 03:26:36;;;;;;;20.47;14.53;;;;;;;;;;744373;186;918032;-75
2021/06/05 03:29:02;;;;;;;16.30;13.47;;;;;;;;;;740538;187;1028095;-75
2021/06/05 03:31:28;;;;;;;17.00;12.73;;;;;;;;;;740152;186;815831;-75
2021/06/05 03:33:54;;;;;;;14.60;11.60;;;;;;;;;;741656;186;918987;-74
2021/06/05 03:36:21;;;;;;;19.10;12.60;;;;;;;;;;737461;187;917865;-74
2021/06/05 03:38:46;;;;;;;16.27;12.37;;;;;;;;;;747764;187;917211;-74
2021/06/05 03:41:12;;;;;;;14.53;10.23;;;;;;;;;;737721;186;918985;-75
2021/06/05 03:43:37;;;;;;;15.23;12.03;;;;;;;;;;748834;187;918001;-75
2021/06/05 03:46:03;;;;;;;13.70;10.53;;;;;;;;;;747079;187;918900;-75
2021/06/05 03:48:29;;;;;;;13.80;9.67;;;;;;;;;;740859;187;918890;-75
2021/06/05 03:50:55;;;;;;;14.97;9.07;;;;;;;;;;749065;187;918730;-75
2021/06/05 03:53:21;;;;;;;11.03;9.70;;;;;;;;;;744115;187;814620;-75
2021/06/05 03:55:47;;;;;;;11.27;8.90;;;;;;;;;;742914;187;815398;-75
2021/06/05 03:58:12;;;;;;;10.73;9.17;;;;;;;;;;737216;187;902285;-75
2021/06/05 04:00:38;;;;;;;9.77;8.77;;;;;;;;;;740943;187;922784;-75
2021/06/05 04:03:04;;;;;;;13.00;9.63;;;;;;;;;;740492;187;1021201;-75
2021/06/05 04:05:30;;;;;;;11.70;9.50;;;;;;;;;;742070;187;1123663;-74
2021/06/05 04:07:56;;;;;;;11.20;8.80;;;;;;;;;;738090;187;919173;-75
2021/06/05 04:10:23;;;;;;;10.23;9.00;;;;;;;;;;743808;187;917804;-74
2021/06/05 04:12:48;;;;;;;9.77;8.00;;;;;;;;;;748705;187;919085;-75
2021/06/05 04:15:14;;;;;;;13.40;8.70;;;;;;;;;;743921;187;927599;-74
2021/06/05 04:17:40;;;;;;;12.13;9.50;;;;;;;;;;747584;186;919239;-75
2021/06/05 04:20:06;;;;;;;9.10;8.07;;;;;;;;;;741920;186;918569;-75
2021/06/05 04:22:32;;;;;;;8.80;7.67;;;;;;;;;;738131;186;915274;-74
2021/06/05 04:25:00;;;;;;;9.50;7.60;;;;;;;;;;737325;186;916206;-76
2021/06/05 04:27:24;;;;;;;10.73;9.63;;;;;;;;;;751941;184;913049;-75
2021/06/05 04:29:50;;;;;;;9.00;6.90;;;;;;;;;;744620;186;813172;-75
2021/06/05 04:32:16;;;;;;;13.80;8.47;;;;;;;;;;741758;186;919510;-75
2021/06/05 04:34:42;;;;;;;11.03;7.83;;;;;;;;;;748833;186;914940;-74
2021/06/05 04:37:08;;;;;;;11.77;7.80;;;;;;;;;;741453;186;918604;-75
2021/06/05 04:39:34;;;;;;;10.77;8.97;;;;;;;;;;742162;186;918365;-75
2021/06/05 04:42:00;;;;;;;15.57;8.23;;;;;;;;;;746199;186;917953;-75
2021/06/05 04:44:25;;;;;;;7.70;6.90;;;;;;;;;;742141;187;815369;-74
2021/06/05 04:46:51;;;;;;;9.10;7.47;;;;;;;;;;743960;186;814867;-75
2021/06/05 04:49:17;;;;;;;9.80;8.47;;;;;;;;;;749243;186;810683;-74
2021/06/05 04:51:43;;;;;;;12.40;8.67;;;;;;;;;;743132;186;812528;-75
2021/06/05 04:54:09;;;;;;;12.40;8.13;;;;;;;;;;742341;187;918269;-75
2021/06/05 04:56:36;;;;;;;13.67;8.20;;;;;;;;;;731293;187;1006690;-75
2021/06/05 04:59:02;;;;;;;9.33;8.17;;;;;;;;;;743430;187;899659;-76
2021/06/05 05:01:28;;;;;;;10.33;7.90;;;;;;;;;;745745;187;887565;-76
2021/06/05 05:03:54;;;;;;;9.67;7.00;;;;;;;;;;742614;187;919289;-75
2021/06/05 05:06:20;;;;;;;9.10;7.03;;;;;;;;;;747447;187;816046;-75
2021/06/05 05:08:45;;;;;;;10.33;7.63;;;;;;;;;;740126;187;919091;-74
2021/06/05 05:11:11;;;;;;;15.00;9.10;;;;;;;;;;739599;187;917475;-76
2021/06/05 05:13:37;;;;;;;9.80;7.37;;;;;;;;;;745207;187;919506;-76
2021/06/05 05:16:03;;;;;;;9.47;7.70;;;;;;;;;;741428;187;919069;-76
2021/06/05 05:18:29;;;;;;;17.85;7.95;;;;;;;;;;742580;187;919248;-75
2021/06/05 05:20:55;;;;;;;8.30;7.20;;;;;;;;;;741067;187;918683;-75
2021/06/05 05:23:21;;;;;;;12.37;9.63;;;;;;;;;;748917;187;918702;-75
2021/06/05 05:25:46;;;;;;;19.37;15.03;;;;;;;;;;739914;187;920604;-76
2021/06/05 05:28:12;;;;;;;40.23;21.63;;;;;;;;;;743540;186;917912;-75
2021/06/05 05:30:38;;;;;;;20.17;14.77;;;;;;;;;;748790;186;887827;-75
2021/06/05 05:33:04;;;;;;;20.20;13.17;;;;;;;;;;742405;186;976183;-76
2021/06/05 05:35:31;;;;;;;14.13;11.20;;;;;;;;;;743874;186;816069;-75
2021/06/05 05:37:56;;;;;;;17.33;12.70;;;;;;;;;;747766;186;818795;-75
2021/06/05 05:40:22;;;;;;;10.67;9.20;;;;;;;;;;744163;186;917005;-76
2021/06/05 05:42:47;;;;;;;12.70;10.13;;;;;;;;;;744351;186;920993;-75
2021/06/05 05:45:13;;;;;;;12.50;10.13;;;;;;;;;;747748;186;815347;-77
2021/06/05 05:47:39;;;;;;;10.73;8.63;;;;;;;;;;743211;186;914855;-75
2021/06/05 05:50:06;;;;;;;15.50;8.50;;;;;;;;;;745256;186;945058;-76
2021/06/05 05:52:31;;;;;;;11.43;8.90;;;;;;;;;;742293;186;919118;-76
2021/06/05 05:54:57;;;;;;;11.10;7.87;;;;;;;;;;745114;186;1021159;-75
2021/06/05 05:57:23;;;;;;;12.40;7.72;;;;;;;;;;739601;186;918312;-77
2021/06/05 05:59:49;;;;;;;13.13;8.10;;;;;;;;;;741176;186;917983;-76
2021/06/05 06:02:15;;;;;;;9.90;7.83;;;;;;;;;;746624;187;817095;-75
2021/06/05 06:04:41;;;;;;;11.93;8.37;;;;;;;;;;741896;187;905161;-76
2021/06/05 06:07:06;;;;;;;11.33;8.90;;;;;;;;;;740753;187;919527;-76
2021/06/05 06:09:32;;;;;;;10.87;9.30;;;;;;;;;;754460;187;915704;-76
2021/06/05 06:11:58;;;;;;;9.83;8.60;;;;;;;;;;738121;187;918226;-76
2021/06/05 06:14:24;;;;;;;14.87;8.87;;;;;;;;;;741295;187;1020719;-76
2021/06/05 06:16:50;;;;;;;11.70;8.30;;;;;;;;;;741718;187;1121692;-76
2021/06/05 06:19:16;;;;;;;15.10;9.67;;;;;;;;;;751298;184;816594;-76
2021/06/05 06:21:42;;;;;;;17.47;10.83;;;;;;;;;;742385;187;816057;-76
2021/06/05 06:24:08;;;;;;;28.73;11.77;;;;;;;;;;744726;187;817184;-75
2021/06/05 06:26:33;;;;;;;15.80;11.70;;;;;;;;;;748089;187;819129;-76
2021/06/05 06:29:08;;;;;;;15.53;10.53;;;;;;;;;;741708;187;918368;-76
2021/06/05 06:31:25;;;;;;;24.73;11.40;;;;;;;;;;743128;187;919013;-76
2021/06/05 06:33:51;;;;;;;17.33;9.82;;;;;;;;;;745635;187;825552;-76
2021/06/05 06:36:17;;;;;;;12.90;10.30;;;;;;;;;;743362;187;714078;-76
2021/06/05 06:38:43;;;;;;;16.40;9.23;;;;;;;;;;740804;187;628413;-76
2021/06/05 06:41:09;;;;;;;12.33;9.57;;;;;;;;;;749711;186;632139;-75
2021/06/05 06:43:34;;;;;;;13.20;10.10;;;;;;;;;;744025;186;810513;-75
2021/06/05 06:46:00;;;;;;;12.30;10.73;;;;;;;;;;748584;186;919467;-76
2021/06/05 06:48:26;;;;;;;13.20;11.65;;;;;;;;;;745908;186;916373;-76
2021/06/05 06:50:52;;;;;;;15.40;12.03;;;;;;;;;;755584;184;903437;-76
2021/06/05 06:53:18;;;;;;;16.40;10.93;;;;;;;;;;740675;186;918682;-76
2021/06/05 06:55:44;;;;;;;15.40;10.20;;;;;;;;;;735186;186;1738222;-76
2021/06/05 06:58:10;;;;;;;14.30;9.83;;;;;;;;;;751817;186;918236;-76
2021/06/05 07:00:35;;;;;;;13.03;10.00;;;;;;;;;;742300;186;816179;-77
2021/06/05 07:03:01;;;;;;;15.90;10.45;;;;;;;;;;739186;187;1168889;-76
2021/06/05 07:05:27;;;;;;;11.60;9.60;;;;;;;;;;743677;186;873833;-74
2021/06/05 07:07:53;;;;;;;17.37;10.57;;;;;;;;;;741487;186;918466;-77
2021/06/05 07:10:19;;;;;;;10.60;9.33;;;;;;;;;;741107;187;917741;-76
2021/06/05 07:12:46;;;;;;;11.97;10.07;;;;;;;;;;741583;187;918995;-77
2021/06/05 07:15:12;;;;;;;10.40;9.30;;;;;;;;;;748481;187;915550;-77
2021/06/05 07:17:38;;;;;;;13.43;9.47;;;;;;;;;;737888;187;917151;-75
2021/06/05 07:20:04;;;;;;;16.57;8.50;;;;;;;;;;739306;187;917850;-76
2021/06/05 07:22:30;;;;;;;11.80;8.33;;;;;;;;;;743899;187;916051;-76
2021/06/05 07:24:56;;;;;;;13.03;7.90;;;;;;;;;;738109;187;925808;-77
2021/06/05 07:27:22;;;;;;;11.33;7.90;;;;;;;;;;741926;187;919007;-77
2021/06/05 07:29:48;;;;;;;11.90;7.73;;;;;;;;;;749624;187;814482;-77
2021/06/05 07:32:14;;;;;;;10.27;7.93;;;;;;;;;;739989;187;941578;-76
2021/06/05 07:34:39;;;;;;;17.00;8.40;;;;;;;;;;740592;187;918930;-77
2021/06/05 07:37:05;;;;;;;9.27;8.38;;;;;;;;;;743606;187;917833;-77
2021/06/05 07:39:31;;;;;;;13.17;9.00;;;;;;;;;;745951;187;1021918;-77
2021/06/05 07:42:00;;;;;;;12.23;8.75;;;;;;;;;;738737;187;1139785;-76
2021/06/05 07:44:26;;;;;;;13.73;7.07;;;;;;;;;;738919;187;911156;-77
2021/06/05 07:46:54;;;;;;;16.65;7.22;;;;;;;;;;746418;187;818149;-77
2021/06/05 07:49:17;;;;;;;9.43;7.30;;;;;;;;;;740850;187;918513;-78
2021/06/05 07:51:43;;;;;;;12.33;6.83;;;;;;;;;;749587;186;919346;-76
2021/06/05 07:54:09;;;;;;;13.03;7.93;;;;;;;;;;748664;186;918541;-78
2021/06/05 07:56:35;;;;;;;9.52;7.32;;;;;;;;;;744124;186;918740;-78
2021/06/05 07:59:01;;;;;;;9.87;7.13;;;;;;;;;;743188;186;815998;-78
2021/06/05 08:01:27;;;;;;;10.87;7.50;;;;;;;;;;745817;186;916871;-77
2021/06/05 08:03:52;;;;;;;9.13;6.67;;;;;;;;;;742295;186;808397;-77
2021/06/05 08:06:18;;;;;;;16.07;7.57;;;;;;;;;;738531;186;913861;-77
2021/06/05 08:08:44;;;;;;;10.30;7.17;;;;;;;;;;740012;186;915677;-77
2021/06/05 08:11:11;;;;;;;12.83;7.63;;;;;;;;;;745677;186;914249;-77
2021/06/05 08:13:36;;;;;;;11.00;6.57;;;;;;;;;;745127;186;915610;-76
2021/06/05 08:16:02;;;;;;;15.38;8.18;;;;;;;;;;742032;186;915087;-78
2021/06/05 08:18:27;;;;;;;10.00;7.73;;;;;;;;;;746465;187;806441;-77
2021/06/05 08:20:55;;;;;;;10.37;7.60;;;;;;;;;;745036;186;909448;-78
2021/06/05 08:23:19;;;;;;;11.70;7.27;;;;;;;;;;741870;186;912878;-78
2021/06/05 08:25:45;;;;;;;8.23;7.17;;;;;;;;;;746646;186;919941;-77
2021/06/05 08:28:11;;;;;;;15.17;7.57;;;;;;;;;;739500;187;808238;-78
2021/06/05 08:30:38;;;;;;;11.60;7.23;;;;;;;;;;739359;187;914312;-78
2021/06/05 08:33:05;;;;;;;10.80;7.10;;;;;;;;;;737810;187;919640;-78
2021/06/05 08:35:30;;;;;;;6.23;5.23;;;;;;;;;;748407;187;873778;-78
2021/06/05 08:37:56;;;;;;;11.30;6.80;;;;;;;;;;742868;187;828848;-78
2021/06/05 08:40:23;;;;;;;8.73;6.00;;;;;;;;;;742146;187;817815;-77
2021/06/05 08:42:50;;;;;;;9.13;5.93;;;;;;;;;;751247;187;715112;-78
2021/06/05 08:45:14;;;;;;;7.90;7.10;;;;;;;;;;744802;187;816928;-78
2021/06/05 08:47:40;;;;;;;8.43;6.77;;;;;;;;;;749191;187;915452;-78
2021/06/05 08:50:07;;;;;;;7.17;6.47;;;;;;;;;;744147;187;919164;-79
2021/06/05 08:52:43;;;;;;;7.10;5.63;;;;;;;;;;743328;187;828877;-78
2021/06/05 08:55:24;;;;;;;8.00;6.57;;;;;;;;;;738079;187;1326518;-78
2021/06/05 08:57:50;;;;;;;9.43;6.30;;;;;;;;;;737215;187;921661;-78
2021/06/05 09:00:16;;;;;;;6.80;6.10;;;;;;;;;;742499;187;915798;-78
2021/06/05 09:02:41;;;;;;;8.77;6.53;;;;;;;;;;754427;186;816332;-78
2021/06/05 09:05:08;;;;;;;9.10;6.40;;;;;;;;;;741152;186;918481;-78
2021/06/05 09:07:33;;;;;;;8.47;6.53;;;;;;;;;;737973;186;917240;-77
2021/06/05 09:09:59;;;;;;;7.70;6.33;;;;;;;;;;751206;186;918852;-77
2021/06/05 09:12:25;;;;;;;10.43;7.20;;;;;;;;;;744403;186;919165;-78
2021/06/05 09:14:51;;;;;;;13.10;6.40;;;;;;;;;;740499;186;913684;-78
2021/06/05 09:17:18;;;;;;;7.03;6.23;;;;;;;;;;741536;186;918023;-78
2021/06/05 09:19:43;;;;;;;9.43;6.70;;;;;;;;;;749401;186;817682;-77
2021/06/05 09:22:12;;;;;;;6.40;5.80;;;;;;;;;;747000;186;929120;-77
2021/06/05 09:24:41;;;;;;;7.60;5.50;;;;;;;;;;742288;187;921980;-79
2021/06/05 09:27:23;;;;;;;10.00;6.60;;;;;;;;;;746570;186;813252;-77
2021/06/05 09:29:53;;;;;;;7.37;5.43;;;;;;;;;;742172;187;910525;-79
2021/06/05 09:32:22;;;;;;;5.83;5.10;;;;;;;;;;747466;186;809805;-78
2021/06/05 09:34:48;;;;;;;8.23;6.30;;;;;;;;;;740781;186;938279;-79
2021/06/05 09:37:29;;;;;;;8.90;5.13;;;;;;;;;;744482;187;918629;-79
2021/06/05 09:39:59;;;;;;;7.82;5.85;;;;;;;;;;744978;187;918715;-79
2021/06/05 09:42:26;;;;;;;7.47;6.37;;;;;;;;;;747646;187;911726;-79
2021/06/05 09:44:52;;;;;;;12.57;5.73;;;;;;;;;;748740;187;919029;-79
2021/06/05 09:47:22;;;;;;;8.80;5.30;;;;;;;;;;745463;187;815015;-79
2021/06/05 09:49:47;;;;;;;8.53;6.10;;;;;;;;;;743814;187;848092;-79
2021/06/05 09:52:12;;;;;;;7.33;5.90;;;;;;;;;;743061;187;917995;-79
2021/06/05 09:54:39;;;;;;;9.10;6.33;;;;;;;;;;741092;187;947347;-79
2021/06/05 09:57:11;;;;;;;8.50;5.40;;;;;;;;;;743303;187;918010;-80
2021/06/05 09:59:37;;;;;;;6.53;5.93;;;;;;;;;;742074;187;916891;-79
2021/06/05 10:02:05;;;;;;;6.10;5.40;;;;;;;;;;720484;195;815516;-79
2021/06/05 10:04:30;;;;;;;8.02;5.37;;;;;;;;;;734619;188;1008242;-78
2021/06/05 10:06:56;;;;;;;7.17;5.13;;;;;;;;;;741496;187;924919;-79
2021/06/05 10:09:27;;;;;;;6.97;5.30;;;;;;;;;;743455;187;940805;-79
2021/06/05 10:11:57;;;;;;;8.90;5.60;;;;;;;;;;744326;187;917699;-79
2021/06/05 10:14:23;;;;;;;13.03;5.57;;;;;;;;;;743183;186;916949;-79
2021/06/05 10:17:00;;;;;;;8.27;6.00;;;;;;;;;;741629;186;815863;-78
2021/06/05 10:19:26;;;;;;;7.93;5.73;;;;;;;;;;748572;186;809171;-79
2021/06/05 10:21:53;;;;;;;7.43;6.63;;;;;;;;;;747548;186;917364;-78
2021/06/05 10:24:26;;;;;;;6.67;5.97;;;;;;;;;;745469;186;1039851;-79
2021/06/05 10:26:51;;;;;;;5.70;5.17;;;;;;;;;;746174;186;951722;-78
2021/06/05 10:29:32;;;;;;;6.73;5.03;;;;;;;;;;750183;186;918802;-80
2021/06/05 10:31:58;;;;;;;6.70;5.77;;;;;;;;;;734643;188;912043;-79
2021/06/05 10:34:30;;;;;;;11.53;6.10;;;;;;;;;;738606;186;891123;-80
2021/06/05 10:36:56;;;;;;;11.97;5.97;;;;;;;;;;741994;187;918868;-79
2021/06/05 10:39:23;;;;;;;7.03;5.83;;;;;;;;;;744998;186;894049;-78
2021/06/05 10:41:50;;;;;;;6.13;5.53;;;;;;;;;;749744;186;830715;-79
2021/06/05 10:44:16;;;;;;;7.17;5.83;;;;;;;;;;741181;187;923135;-80
2021/06/05 10:46:48;;;;;;;6.97;6.17;;;;;;;;;;739869;186;1020665;-79
2021/06/05 10:49:13;;;;;;;8.10;7.00;;;;;;;;;;741061;186;919658;-79
2021/06/05 10:51:39;;;;;;;6.67;5.87;;;;;;;;;;738890;187;712856;-79
2021/06/05 10:54:06;;;;;;;7.50;5.83;;;;;;;;;;742621;187;818856;-79
2021/06/05 10:56:48;;;;;;;9.17;5.57;;;;;;;;;;744928;187;903333;-78
2021/06/05 10:59:20;;;;;;;6.00;5.40;;;;;;;;;;740372;187;905237;-79
2021/06/05 11:01:46;;;;;;;8.13;6.00;;;;;;;;;;747027;187;915218;-79
2021/06/05 11:04:27;;;;;;;7.90;5.90;;;;;;;;;;741981;187;902671;-78
2021/06/05 11:07:08;;;;;;;10.17;6.47;;;;;;;;;;740486;187;916371;-78
2021/06/05 11:09:43;;;;;;;6.60;5.73;;;;;;;;;;744747;187;627735;-78
2021/06/05 11:12:27;;;;;;;7.80;5.77;;;;;;;;;;742548;187;920872;-79
2021/06/05 11:14:53;;;;;;;8.87;6.07;;;;;;;;;;745595;187;620297;-79
2021/06/05 11:17:25;;;;;;;9.85;6.00;;;;;;;;;;741866;187;922643;-78
2021/06/05 11:19:51;;;;;;;6.20;5.60;;;;;;;;;;745803;187;912254;-79
2021/06/05 11:22:18;;;;;;;6.80;6.10;;;;;;;;;;737328;187;1328681;-80
2021/06/05 11:24:44;;;;;;;8.10;5.50;;;;;;;;;;744005;186;916609;-79
2021/06/05 11:27:12;;;;;;;5.60;5.10;;;;;;;;;;746985;186;655307;-79
2021/06/05 11:29:52;;;;;;;7.20;5.93;;;;;;;;;;755654;183;672961;-77
2021/06/05 11:32:25;;;;;;;7.80;6.50;;;;;;;;;;755016;186;672851;-80
2021/06/05 11:34:52;;;;;;;6.20;5.27;;;;;;;;;;740518;186;1021962;-78
2021/06/05 11:37:33;;;;;;;8.52;6.20;;;;;;;;;;739554;186;895832;-79
2021/06/05 11:39:59;;;;;;;8.30;7.10;;;;;;;;;;736329;186;1005766;-80
2021/06/05 11:42:40;;;;;;;8.30;5.93;;;;;;;;;;746733;186;816041;-80
2021/06/05 11:45:20;;;;;;;8.00;5.13;;;;;;;;;;741248;187;816575;-81
2021/06/05 11:47:46;;;;;;;8.73;5.93;;;;;;;;;;747815;186;910787;-80
2021/06/05 11:50:27;;;;;;;5.77;5.27;;;;;;;;;;740029;186;918058;-81
2021/06/05 11:52:53;;;;;;;6.63;5.80;;;;;;;;;;738245;187;907016;-79
2021/06/05 11:55:20;;;;;;;6.83;6.03;;;;;;;;;;739696;186;827627;-80
2021/06/05 11:57:58;;;;;;;8.17;6.30;;;;;;;;;;746430;186;883168;-81
2021/06/05 12:00:25;;;;;;;11.30;6.10;;;;;;;;;;746375;186;625438;-81
2021/06/05 12:02:53;;;;;;;10.60;6.40;;;;;;;;;;747434;187;647750;-80
2021/06/05 12:05:20;;;;;;;10.90;7.07;;;;;;;;;;746581;187;637713;-79
2021/06/05 12:07:46;;;;;;;7.60;6.80;;;;;;;;;;741131;187;624170;-80
2021/06/05 12:10:13;;;;;;;8.00;5.80;;;;;;;;;;744594;187;615804;-79
2021/06/05 12:12:43;;;;;;;7.60;5.90;;;;;;;;;;743013;187;646752;-80
2021/06/05 12:15:09;;;;;;;8.00;6.30;;;;;;;;;;747816;187;621353;-80
2021/06/05 12:17:35;;;;;;;8.40;6.80;;;;;;;;;;747005;187;641440;-79
2021/06/05 12:20:10;;;;;;;8.93;6.10;;;;;;;;;;745155;187;635499;-80
2021/06/05 12:22:36;;;;;;;7.40;5.63;;;;;;;;;;747611;187;636811;-79
2021/06/05 12:25:02;;;;;;;6.50;5.77;;;;;;;;;;745263;187;636188;-80
2021/06/05 12:27:28;;;;;;;6.03;5.30;;;;;;;;;;749454;187;641016;-80
2021/06/05 12:29:59;;;;;;;8.37;6.30;;;;;;;;;;747657;186;638140;-80
2021/06/05 12:32:27;;;;;;;8.40;5.30;;;;;;;;;;745771;187;634743;-80
2021/06/05 12:34:51;;;;;;;6.80;5.70;;;;;;;;;;742423;187;629185;-82
2021/06/05 12:37:17;;;;;;;8.83;5.20;;;;;;;;;;749002;186;623841;-78
2021/06/05 12:39:46;;;;;;;14.93;7.60;;;;;;;;;;746081;186;624957;-81
2021/06/05 12:42:11;;;;;;;11.50;5.80;;;;;;;;;;747941;186;727468;-80
2021/06/05 12:44:39;;;;;;;7.77;5.67;;;;;;;;;;746883;186;633371;-79
2021/06/05 12:47:04;;;;;;;8.43;6.30;;;;;;;;;;750440;186;614064;-79
2021/06/05 12:49:30;;;;;;;7.63;6.33;;;;;;;;;;744523;186;709188;-80
2021/06/05 12:51:57;;;;;;;6.43;5.70;;;;;;;;;;746802;186;613559;-80
2021/06/05 12:54:22;;;;;;;10.80;6.83;;;;;;;;;;747193;186;838934;-80
2021/06/05 12:56:48;;;;;;;6.40;5.80;;;;;;;;;;741685;186;654317;-80
2021/06/05 12:59:14;;;;;;;9.43;5.80;;;;;;;;;;741972;186;821531;-80
2021/06/05 13:01:41;;;;;;;6.10;5.40;;;;;;;;;;750483;186;678728;-80
2021/06/05 13:04:06;;;;;;;11.13;6.30;;;;;;;;;;741101;187;614295;-79
2021/06/05 13:06:32;;;;;;;9.03;5.67;;;;;;;;;;743719;186;629554;-80
2021/06/05 13:09:03;;;;;;;6.93;6.17;;;;;;;;;;749930;186;650445;-80
2021/06/05 13:11:35;;;;;;;13.17;6.00;;;;;;;;;;746211;187;623874;-80
2021/06/05 13:14:09;;;;;;;10.40;6.70;;;;;;;;;;739912;187;623736;-80
2021/06/05 13:16:35;;;;;;;8.70;6.60;;;;;;;;;;747163;187;626296;-81
2021/06/05 13:19:06;;;;;;;6.50;5.90;;;;;;;;;;744881;187;616275;-80
2021/06/05 13:21:32;;;;;;;10.07;6.57;;;;;;;;;;748073;187;622072;-82
2021/06/05 13:24:04;;;;;;;16.63;6.50;;;;;;;;;;744891;187;644852;-80
2021/06/05 13:26:30;;;;;;;8.23;6.00;;;;;;;;;;741185;187;699328;-80
2021/06/05 13:28:56;;;;;;;6.43;5.73;;;;;;;;;;742671;187;628973;-81
2021/06/05 13:31:28;;;;;;;8.17;5.67;;;;;;;;;;749645;187;625549;-81
2021/06/05 13:33:54;;;;;;;7.10;4.90;;;;;;;;;;752199;187;648706;-81
2021/06/05 13:36:23;;;;;;;9.67;5.80;;;;;;;;;;747371;187;634523;-81
2021/06/05 13:38:48;;;;;;;7.20;6.40;;;;;;;;;;748837;187;628139;-80
2021/06/05 13:41:14;;;;;;;6.23;5.63;;;;;;;;;;753451;184;647319;-81
2021/06/05 13:43:40;;;;;;;6.43;5.73;;;;;;;;;;741303;187;1010876;-80
2021/06/05 13:46:06;;;;;;;6.87;6.17;;;;;;;;;;741200;187;640078;-81
2021/06/05 13:48:32;;;;;;;7.43;5.90;;;;;;;;;;743704;186;657359;-81
2021/06/05 13:50:58;;;;;;;16.00;6.70;;;;;;;;;;745826;186;629192;-81
2021/06/05 13:53:25;;;;;;;6.47;5.63;;;;;;;;;;745235;186;618423;-80
2021/06/05 13:55:51;;;;;;;5.57;4.97;;;;;;;;;;750888;186;631956;-79
2021/06/05 13:58:17;;;;;;;6.90;6.03;;;;;;;;;;744608;186;632393;-81
2021/06/05 14:00:43;;;;;;;11.43;7.20;;;;;;;;;;745307;186;673710;-81
2021/06/05 14:03:09;;;;;;;14.23;6.20;;;;;;;;;;750698;186;644854;-81
2021/06/05 14:05:35;;;;;;;6.80;5.50;;;;;;;;;;750935;186;736641;-80
2021/06/05 14:08:01;;;;;;;6.72;5.70;;;;;;;;;;740958;186;638644;-81
2021/06/05 14:10:26;;;;;;;8.00;6.20;;;;;;;;;;745433;186;626922;-80
2021/06/05 14:12:55;;;;;;;7.07;6.33;;;;;;;;;;750879;186;625289;-80
2021/06/05 14:15:20;;;;;;;8.27;6.00;;;;;;;;;;748173;186;636873;-80
2021/06/05 14:17:46;;;;;;;6.90;5.47;;;;;;;;;;745366;186;625818;-79